sensor_id;sensor_type;location;lat;lon;timestamp;P1;durP1;ratioP1;P2;durP2;ratioP2
40074;SDS011;26529;51.530;11.754;2022-08-19T00:00:35;7.95;;;6.75;;
40074;SDS011;26529;51.530;11.754;2022-08-19T00:03:01;9.25;;;6.68;;
40074;SDS011;26529;51.530;11.754;2022-08-19T00:05:27;8.25;;;6.20;;
40074;SDS011;26529;51.530;11.754;2022-08-19T00:07:53;9.63;;;7.03;;
40074;SDS011;26529;51.530;11.754;2022-08-19T00:10:18;8.82;;;6.32;;
40074;SDS011;26529;51.530;11.754;2022-08-19T00:12:45;8.50;;;6.60;;
40074;SDS011;26529;51.530;11.754;2022-08-19T00:15:11;8.02;;;6.95;;
40074;SDS011;26529;51.530;11.754;2022-08-19T00:17:41;10.45;;;7.47;;
40074;SDS011;26529;51.530;11.754;2022-08-19T00:20:09;7.72;;;6.65;;
40074;SDS011;26529;51.530;11.754;2022-08-19T00:22:36;8.10;;;7.30;;
40074;SDS011;26529;51.530;11.754;2022-08-19T00:25:03;8.57;;;7.82;;
40074;SDS011;26529;51.530;11.754;2022-08-19T00:27:30;9.40;;;7.65;;
40074;SDS011;26529;51.530;11.754;2022-08-19T00:29:56;8.05;;;7.35;;
40074;SDS011;26529;51.530;11.754;2022-08-19T00:32:21;8.65;;;7.75;;
40074;SDS011;26529;51.530;11.754;2022-08-19T00:34:47;7.95;;;7.25;;
40074;SDS011;26529;51.530;11.754;2022-08-19T00:37:12;8.27;;;7.47;;
40074;SDS011;26529;51.530;11.754;2022-08-19T00:39:38;8.65;;;7.38;;
40074;SDS011;26529;51.530;11.754;2022-08-19T00:42:03;8.20;;;7.20;;
40074;SDS011;26529;51.530;11.754;2022-08-19T00:44:29;8.00;;;7.15;;
40074;SDS011;26529;51.530;11.754;2022-08-19T00:46:57;7.75;;;6.82;;
40074;SDS011;26529;51.530;11.754;2022-08-19T00:49:27;8.85;;;7.93;;
40074;SDS011;26529;51.530;11.754;2022-08-19T00:52:09;7.43;;;6.78;;
40074;SDS011;26529;51.530;11.754;2022-08-19T00:54:39;7.40;;;6.63;;
40074;SDS011;26529;51.530;11.754;2022-08-19T00:57:08;7.78;;;7.07;;
40074;SDS011;26529;51.530;11.754;2022-08-19T00:59:37;9.95;;;7.22;;
40074;SDS011;26529;51.530;11.754;2022-08-19T01:02:05;8.23;;;6.80;;
40074;SDS011;26529;51.530;11.754;2022-08-19T01:04:32;7.53;;;6.63;;
40074;SDS011;26529;51.530;11.754;2022-08-19T01:06:57;7.53;;;6.82;;
40074;SDS011;26529;51.530;11.754;2022-08-19T01:09:24;7.88;;;7.18;;
40074;SDS011;26529;51.530;11.754;2022-08-19T01:11:50;8.18;;;7.45;;
40074;SDS011;26529;51.530;11.754;2022-08-19T01:14:16;7.93;;;7.13;;
40074;SDS011;26529;51.530;11.754;2022-08-19T01:16:42;7.65;;;6.65;;
40074;SDS011;26529;51.530;11.754;2022-08-19T01:19:10;6.95;;;6.25;;
40074;SDS011;26529;51.530;11.754;2022-08-19T01:21:45;6.85;;;6.18;;
40074;SDS011;26529;51.530;11.754;2022-08-19T01:24:17;6.88;;;6.28;;
40074;SDS011;26529;51.530;11.754;2022-08-19T01:26:43;7.43;;;6.40;;
40074;SDS011;26529;51.530;11.754;2022-08-19T01:29:10;7.30;;;6.60;;
40074;SDS011;26529;51.530;11.754;2022-08-19T01:31:36;7.07;;;6.38;;
40074;SDS011;26529;51.530;11.754;2022-08-19T01:34:04;6.88;;;6.28;;
40074;SDS011;26529;51.530;11.754;2022-08-19T01:36:32;7.15;;;6.45;;
40074;SDS011;26529;51.530;11.754;2022-08-19T01:39:03;6.75;;;6.10;;
40074;SDS011;26529;51.530;11.754;2022-08-19T01:41:31;7.13;;;6.43;;
40074;SDS011;26529;51.530;11.754;2022-08-19T01:43:57;7.50;;;6.70;;
40074;SDS011;26529;51.530;11.754;2022-08-19T01:46:23;8.73;;;7.68;;
40074;SDS011;26529;51.530;11.754;2022-08-19T01:48:49;8.20;;;6.63;;
40074;SDS011;26529;51.530;11.754;2022-08-19T01:51:14;8.80;;;6.97;;
40074;SDS011;26529;51.530;11.754;2022-08-19T01:53:40;7.72;;;7.03;;
40074;SDS011;26529;51.530;11.754;2022-08-19T01:56:06;7.97;;;7.18;;
40074;SDS011;26529;51.530;11.754;2022-08-19T01:58:40;8.52;;;7.65;;
40074;SDS011;26529;51.530;11.754;2022-08-19T02:01:11;9.48;;;8.57;;
40074;SDS011;26529;51.530;11.754;2022-08-19T02:03:38;8.85;;;7.10;;
40074;SDS011;26529;51.530;11.754;2022-08-19T02:06:03;9.02;;;7.13;;
40074;SDS011;26529;51.530;11.754;2022-08-19T02:08:30;8.85;;;7.50;;
40074;SDS011;26529;51.530;11.754;2022-08-19T02:10:57;7.97;;;7.28;;
40074;SDS011;26529;51.530;11.754;2022-08-19T02:13:23;8.43;;;7.72;;
40074;SDS011;26529;51.530;11.754;2022-08-19T02:15:49;9.05;;;8.25;;
40074;SDS011;26529;51.530;11.754;2022-08-19T02:18:15;10.27;;;9.27;;
40074;SDS011;26529;51.530;11.754;2022-08-19T02:20:41;9.25;;;8.30;;
40074;SDS011;26529;51.530;11.754;2022-08-19T02:23:08;8.85;;;7.90;;
40074;SDS011;26529;51.530;11.754;2022-08-19T02:25:35;9.95;;;8.88;;
40074;SDS011;26529;51.530;11.754;2022-08-19T02:28:01;10.00;;;9.10;;
40074;SDS011;26529;51.530;11.754;2022-08-19T02:30:27;10.23;;;9.13;;
40074;SDS011;26529;51.530;11.754;2022-08-19T02:32:53;9.73;;;8.82;;
40074;SDS011;26529;51.530;11.754;2022-08-19T02:35:18;10.25;;;9.25;;
40074;SDS011;26529;51.530;11.754;2022-08-19T02:37:44;10.40;;;9.10;;
40074;SDS011;26529;51.530;11.754;2022-08-19T02:40:28;10.48;;;9.48;;
40074;SDS011;26529;51.530;11.754;2022-08-19T02:42:55;9.35;;;8.45;;
40074;SDS011;26529;51.530;11.754;2022-08-19T02:45:21;11.32;;;10.18;;
40074;SDS011;26529;51.530;11.754;2022-08-19T02:47:47;10.60;;;9.60;;
40074;SDS011;26529;51.530;11.754;2022-08-19T02:50:13;10.35;;;9.35;;
40074;SDS011;26529;51.530;11.754;2022-08-19T02:52:39;12.07;;;10.40;;
40074;SDS011;26529;51.530;11.754;2022-08-19T02:55:05;10.45;;;9.55;;
40074;SDS011;26529;51.530;11.754;2022-08-19T02:57:31;11.23;;;10.18;;
40074;SDS011;26529;51.530;11.754;2022-08-19T02:59:57;9.48;;;8.57;;
40074;SDS011;26529;51.530;11.754;2022-08-19T03:02:23;10.65;;;9.55;;
40074;SDS011;26529;51.530;11.754;2022-08-19T03:04:48;15.52;;;9.75;;
40074;SDS011;26529;51.530;11.754;2022-08-19T03:07:15;11.93;;;10.73;;
40074;SDS011;26529;51.530;11.754;2022-08-19T03:09:41;11.75;;;10.50;;
40074;SDS011;26529;51.530;11.754;2022-08-19T03:12:10;10.38;;;9.38;;
40074;SDS011;26529;51.530;11.754;2022-08-19T03:14:36;9.38;;;8.48;;
40074;SDS011;26529;51.530;11.754;2022-08-19T03:17:03;10.13;;;9.23;;
40074;SDS011;26529;51.530;11.754;2022-08-19T03:19:29;10.30;;;9.32;;
40074;SDS011;26529;51.530;11.754;2022-08-19T03:21:56;12.02;;;10.50;;
40074;SDS011;26529;51.530;11.754;2022-08-19T03:24:22;11.18;;;10.02;;
40074;SDS011;26529;51.530;11.754;2022-08-19T03:26:49;11.38;;;10.27;;
40074;SDS011;26529;51.530;11.754;2022-08-19T03:29:18;9.95;;;9.05;;
40074;SDS011;26529;51.530;11.754;2022-08-19T03:31:44;10.52;;;9.35;;
40074;SDS011;26529;51.530;11.754;2022-08-19T03:34:14;10.38;;;9.32;;
40074;SDS011;26529;51.530;11.754;2022-08-19T03:36:46;10.00;;;8.88;;
40074;SDS011;26529;51.530;11.754;2022-08-19T03:39:12;9.27;;;8.48;;
40074;SDS011;26529;51.530;11.754;2022-08-19T03:41:39;9.23;;;8.32;;
40074;SDS011;26529;51.530;11.754;2022-08-19T03:44:07;9.27;;;8.38;;
40074;SDS011;26529;51.530;11.754;2022-08-19T03:46:33;10.05;;;8.25;;
40074;SDS011;26529;51.530;11.754;2022-08-19T03:49:00;9.15;;;7.97;;
40074;SDS011;26529;51.530;11.754;2022-08-19T03:51:35;9.23;;;8.43;;
40074;SDS011;26529;51.530;11.754;2022-08-19T03:54:04;9.50;;;8.25;;
40074;SDS011;26529;51.530;11.754;2022-08-19T03:56:32;8.98;;;7.43;;
40074;SDS011;26529;51.530;11.754;2022-08-19T03:59:04;8.82;;;7.50;;
40074;SDS011;26529;51.530;11.754;2022-08-19T04:01:31;9.00;;;8.10;;
40074;SDS011;26529;51.530;11.754;2022-08-19T04:03:57;8.77;;;7.97;;
40074;SDS011;26529;51.530;11.754;2022-08-19T04:06:25;8.95;;;8.15;;
40074;SDS011;26529;51.530;11.754;2022-08-19T04:08:53;8.05;;;7.22;;
40074;SDS011;26529;51.530;11.754;2022-08-19T04:11:21;8.45;;;7.32;;
40074;SDS011;26529;51.530;11.754;2022-08-19T04:13:49;7.80;;;6.80;;
40074;SDS011;26529;51.530;11.754;2022-08-19T04:16:17;8.60;;;7.72;;
40074;SDS011;26529;51.530;11.754;2022-08-19T04:18:44;7.55;;;6.57;;
40074;SDS011;26529;51.530;11.754;2022-08-19T04:21:15;8.07;;;7.38;;
40074;SDS011;26529;51.530;11.754;2022-08-19T04:23:46;7.70;;;7.00;;
40074;SDS011;26529;51.530;11.754;2022-08-19T04:26:17;8.25;;;7.43;;
40074;SDS011;26529;51.530;11.754;2022-08-19T04:28:45;7.45;;;6.75;;
40074;SDS011;26529;51.530;11.754;2022-08-19T04:31:14;8.07;;;7.28;;
40074;SDS011;26529;51.530;11.754;2022-08-19T04:33:41;8.00;;;7.20;;
40074;SDS011;26529;51.530;11.754;2022-08-19T04:36:07;7.60;;;6.93;;
40074;SDS011;26529;51.530;11.754;2022-08-19T04:38:35;8.32;;;7.05;;
40074;SDS011;26529;51.530;11.754;2022-08-19T04:41:02;9.15;;;6.13;;
40074;SDS011;26529;51.530;11.754;2022-08-19T04:43:49;8.27;;;6.20;;
40074;SDS011;26529;51.530;11.754;2022-08-19T04:46:15;9.50;;;7.00;;
40074;SDS011;26529;51.530;11.754;2022-08-19T04:48:42;5.90;;;5.40;;
40074;SDS011;26529;51.530;11.754;2022-08-19T04:51:09;6.60;;;5.90;;
40074;SDS011;26529;51.530;11.754;2022-08-19T04:53:38;7.55;;;6.07;;
40074;SDS011;26529;51.530;11.754;2022-08-19T04:56:09;6.57;;;5.90;;
40074;SDS011;26529;51.530;11.754;2022-08-19T04:58:37;8.88;;;6.00;;
40074;SDS011;26529;51.530;11.754;2022-08-19T05:01:05;6.25;;;5.65;;
40074;SDS011;26529;51.530;11.754;2022-08-19T05:03:31;6.90;;;5.53;;
40074;SDS011;26529;51.530;11.754;2022-08-19T05:06:03;5.85;;;5.22;;
40074;SDS011;26529;51.530;11.754;2022-08-19T05:08:33;6.60;;;5.70;;
40074;SDS011;26529;51.530;11.754;2022-08-19T05:10:59;6.43;;;5.63;;
40074;SDS011;26529;51.530;11.754;2022-08-19T05:13:25;9.82;;;5.65;;
40074;SDS011;26529;51.530;11.754;2022-08-19T05:15:55;5.55;;;5.05;;
40074;SDS011;26529;51.530;11.754;2022-08-19T05:18:22;5.90;;;5.30;;
40074;SDS011;26529;51.530;11.754;2022-08-19T05:21:07;6.15;;;5.57;;
40074;SDS011;26529;51.530;11.754;2022-08-19T05:23:53;6.15;;;5.55;;
40074;SDS011;26529;51.530;11.754;2022-08-19T05:26:19;5.75;;;5.25;;
40074;SDS011;26529;51.530;11.754;2022-08-19T05:28:44;6.75;;;5.05;;
40074;SDS011;26529;51.530;11.754;2022-08-19T05:31:10;6.28;;;5.50;;
40074;SDS011;26529;51.530;11.754;2022-08-19T05:33:35;8.23;;;5.65;;
40074;SDS011;26529;51.530;11.754;2022-08-19T05:36:02;6.38;;;5.30;;
40074;SDS011;26529;51.530;11.754;2022-08-19T05:38:29;5.85;;;5.25;;
40074;SDS011;26529;51.530;11.754;2022-08-19T05:40:55;8.68;;;6.10;;
40074;SDS011;26529;51.530;11.754;2022-08-19T05:43:20;7.78;;;5.32;;
40074;SDS011;26529;51.530;11.754;2022-08-19T05:45:46;7.07;;;5.15;;
40074;SDS011;26529;51.530;11.754;2022-08-19T05:48:11;7.13;;;5.38;;
40074;SDS011;26529;51.530;11.754;2022-08-19T05:50:38;6.53;;;5.05;;
40074;SDS011;26529;51.530;11.754;2022-08-19T05:53:05;6.55;;;5.07;;
40074;SDS011;26529;51.530;11.754;2022-08-19T05:55:31;5.28;;;4.75;;
40074;SDS011;26529;51.530;11.754;2022-08-19T05:57:56;4.90;;;4.50;;
40074;SDS011;26529;51.530;11.754;2022-08-19T06:00:22;5.95;;;4.70;;
40074;SDS011;26529;51.530;11.754;2022-08-19T06:02:48;6.55;;;4.80;;
40074;SDS011;26529;51.530;11.754;2022-08-19T06:05:13;6.45;;;5.22;;
40074;SDS011;26529;51.530;11.754;2022-08-19T06:07:39;7.40;;;5.35;;
40074;SDS011;26529;51.530;11.754;2022-08-19T06:10:05;6.55;;;4.95;;
40074;SDS011;26529;51.530;11.754;2022-08-19T06:12:33;7.90;;;5.22;;
40074;SDS011;26529;51.530;11.754;2022-08-19T06:15:01;6.13;;;4.82;;
40074;SDS011;26529;51.530;11.754;2022-08-19T06:17:29;7.20;;;4.97;;
40074;SDS011;26529;51.530;11.754;2022-08-19T06:19:55;5.65;;;5.07;;
40074;SDS011;26529;51.530;11.754;2022-08-19T06:22:21;6.63;;;5.15;;
40074;SDS011;26529;51.530;11.754;2022-08-19T06:24:46;7.57;;;5.75;;
40074;SDS011;26529;51.530;11.754;2022-08-19T06:27:12;9.07;;;6.25;;
40074;SDS011;26529;51.530;11.754;2022-08-19T06:29:37;7.20;;;6.00;;
40074;SDS011;26529;51.530;11.754;2022-08-19T06:32:03;8.07;;;6.30;;
40074;SDS011;26529;51.530;11.754;2022-08-19T06:34:29;7.32;;;6.28;;
40074;SDS011;26529;51.530;11.754;2022-08-19T06:36:58;6.82;;;5.90;;
40074;SDS011;26529;51.530;11.754;2022-08-19T06:39:26;7.07;;;5.93;;
40074;SDS011;26529;51.530;11.754;2022-08-19T06:41:55;6.50;;;5.55;;
40074;SDS011;26529;51.530;11.754;2022-08-19T06:44:24;6.80;;;5.50;;
40074;SDS011;26529;51.530;11.754;2022-08-19T06:46:51;6.05;;;5.45;;
40074;SDS011;26529;51.530;11.754;2022-08-19T06:49:17;6.50;;;5.85;;
40074;SDS011;26529;51.530;11.754;2022-08-19T06:51:44;9.20;;;6.13;;
40074;SDS011;26529;51.530;11.754;2022-08-19T06:54:12;7.22;;;5.65;;
40074;SDS011;26529;51.530;11.754;2022-08-19T06:56:39;7.00;;;5.07;;
40074;SDS011;26529;51.530;11.754;2022-08-19T06:59:06;8.48;;;6.15;;
40074;SDS011;26529;51.530;11.754;2022-08-19T07:01:34;7.75;;;4.65;;
40074;SDS011;26529;51.530;11.754;2022-08-19T07:04:03;6.38;;;5.60;;
40074;SDS011;26529;51.530;11.754;2022-08-19T07:06:29;7.78;;;5.45;;
40074;SDS011;26529;51.530;11.754;2022-08-19T07:08:56;6.60;;;5.05;;
40074;SDS011;26529;51.530;11.754;2022-08-19T07:11:23;7.13;;;5.50;;
40074;SDS011;26529;51.530;11.754;2022-08-19T07:13:49;5.85;;;5.25;;
40074;SDS011;26529;51.530;11.754;2022-08-19T07:16:17;6.05;;;5.47;;
40074;SDS011;26529;51.530;11.754;2022-08-19T07:18:47;6.60;;;4.80;;
40074;SDS011;26529;51.530;11.754;2022-08-19T07:21:19;6.25;;;5.13;;
40074;SDS011;26529;51.530;11.754;2022-08-19T07:23:47;5.47;;;4.97;;
40074;SDS011;26529;51.530;11.754;2022-08-19T07:26:15;6.22;;;4.57;;
40074;SDS011;26529;51.530;11.754;2022-08-19T07:28:44;5.53;;;4.70;;
40074;SDS011;26529;51.530;11.754;2022-08-19T07:31:11;5.05;;;4.65;;
40074;SDS011;26529;51.530;11.754;2022-08-19T07:33:39;5.68;;;4.80;;
40074;SDS011;26529;51.530;11.754;2022-08-19T07:36:06;6.00;;;5.40;;
40074;SDS011;26529;51.530;11.754;2022-08-19T07:38:35;6.90;;;5.13;;
40074;SDS011;26529;51.530;11.754;2022-08-19T07:41:00;5.43;;;4.38;;
40074;SDS011;26529;51.530;11.754;2022-08-19T07:43:26;5.68;;;4.75;;
40074;SDS011;26529;51.530;11.754;2022-08-19T07:45:53;5.05;;;4.47;;
40074;SDS011;26529;51.530;11.754;2022-08-19T07:48:22;5.03;;;4.53;;
40074;SDS011;26529;51.530;11.754;2022-08-19T07:50:54;5.85;;;5.35;;
40074;SDS011;26529;51.530;11.754;2022-08-19T07:53:21;6.47;;;5.00;;
40074;SDS011;26529;51.530;11.754;2022-08-19T07:55:47;7.45;;;5.55;;
40074;SDS011;26529;51.530;11.754;2022-08-19T07:58:14;5.85;;;5.18;;
40074;SDS011;26529;51.530;11.754;2022-08-19T08:00:43;6.15;;;5.38;;
40074;SDS011;26529;51.530;11.754;2022-08-19T08:03:10;5.90;;;4.75;;
40074;SDS011;26529;51.530;11.754;2022-08-19T08:05:37;5.72;;;5.13;;
40074;SDS011;26529;51.530;11.754;2022-08-19T08:08:21;7.82;;;4.97;;
40074;SDS011;26529;51.530;11.754;2022-08-19T08:11:07;5.50;;;5.00;;
40074;SDS011;26529;51.530;11.754;2022-08-19T08:13:33;6.13;;;5.05;;
40074;SDS011;26529;51.530;11.754;2022-08-19T08:16:00;6.55;;;5.50;;
40074;SDS011;26529;51.530;11.754;2022-08-19T08:18:27;8.45;;;4.88;;
40074;SDS011;26529;51.530;11.754;2022-08-19T08:20:52;6.45;;;4.72;;
40074;SDS011;26529;51.530;11.754;2022-08-19T08:23:17;7.03;;;5.50;;
40074;SDS011;26529;51.530;11.754;2022-08-19T08:25:55;5.63;;;5.13;;
40074;SDS011;26529;51.530;11.754;2022-08-19T08:28:22;7.50;;;5.13;;
40074;SDS011;26529;51.530;11.754;2022-08-19T08:30:48;4.70;;;4.20;;
40074;SDS011;26529;51.530;11.754;2022-08-19T08:33:18;4.75;;;4.30;;
40074;SDS011;26529;51.530;11.754;2022-08-19T08:35:46;4.43;;;3.88;;
40074;SDS011;26529;51.530;11.754;2022-08-19T08:38:12;4.85;;;4.00;;
40074;SDS011;26529;51.530;11.754;2022-08-19T08:43:08;4.22;;;3.67;;
40074;SDS011;26529;51.530;11.754;2022-08-19T08:45:44;5.03;;;3.88;;
40074;SDS011;26529;51.530;11.754;2022-08-19T08:48:20;4.40;;;4.00;;
40074;SDS011;26529;51.530;11.754;2022-08-19T08:50:58;4.35;;;3.90;;
40074;SDS011;26529;51.530;11.754;2022-08-19T08:53:27;4.88;;;4.10;;
40074;SDS011;26529;51.530;11.754;2022-08-19T08:55:53;4.95;;;4.13;;
40074;SDS011;26529;51.530;11.754;2022-08-19T08:58:21;5.18;;;4.03;;
40074;SDS011;26529;51.530;11.754;2022-08-19T09:00:53;7.55;;;4.90;;
40074;SDS011;26529;51.530;11.754;2022-08-19T09:03:23;6.95;;;4.18;;
40074;SDS011;26529;51.530;11.754;2022-08-19T09:08:29;5.13;;;4.50;;
40074;SDS011;26529;51.530;11.754;2022-08-19T09:11:10;6.38;;;5.10;;
40074;SDS011;26529;51.530;11.754;2022-08-19T09:16:47;7.55;;;5.40;;
40074;SDS011;26529;51.530;11.754;2022-08-19T09:19:14;5.57;;;5.10;;
40074;SDS011;26529;51.530;11.754;2022-08-19T09:21:40;4.97;;;4.47;;
40074;SDS011;26529;51.530;11.754;2022-08-19T09:24:06;5.10;;;4.40;;
40074;SDS011;26529;51.530;11.754;2022-08-19T09:26:32;5.13;;;4.50;;
40074;SDS011;26529;51.530;11.754;2022-08-19T09:28:58;7.07;;;4.40;;
40074;SDS011;26529;51.530;11.754;2022-08-19T09:31:26;5.78;;;4.00;;
40074;SDS011;26529;51.530;11.754;2022-08-19T09:33:54;4.72;;;4.32;;
40074;SDS011;26529;51.530;11.754;2022-08-19T09:36:23;5.55;;;4.70;;
40074;SDS011;26529;51.530;11.754;2022-08-19T09:38:50;4.65;;;4.18;;
40074;SDS011;26529;51.530;11.754;2022-08-19T09:41:20;6.28;;;4.70;;
40074;SDS011;26529;51.530;11.754;2022-08-19T09:43:48;4.47;;;4.13;;
40074;SDS011;26529;51.530;11.754;2022-08-19T09:46:20;4.20;;;3.88;;
40074;SDS011;26529;51.530;11.754;2022-08-19T09:48:47;4.80;;;4.22;;
40074;SDS011;26529;51.530;11.754;2022-08-19T09:51:20;3.85;;;3.47;;
40074;SDS011;26529;51.530;11.754;2022-08-19T09:53:48;5.97;;;3.85;;
40074;SDS011;26529;51.530;11.754;2022-08-19T09:56:16;5.80;;;4.60;;
40074;SDS011;26529;51.530;11.754;2022-08-19T09:58:42;4.32;;;3.90;;
40074;SDS011;26529;51.530;11.754;2022-08-19T10:01:08;4.68;;;4.13;;
40074;SDS011;26529;51.530;11.754;2022-08-19T10:03:35;7.00;;;4.60;;
40074;SDS011;26529;51.530;11.754;2022-08-19T10:06:02;5.20;;;4.70;;
40074;SDS011;26529;51.530;11.754;2022-08-19T10:08:31;5.80;;;4.82;;
40074;SDS011;26529;51.530;11.754;2022-08-19T10:10:58;4.93;;;4.43;;
40074;SDS011;26529;51.530;11.754;2022-08-19T10:13:25;5.47;;;4.40;;
40074;SDS011;26529;51.530;11.754;2022-08-19T10:15:53;4.28;;;3.88;;
40074;SDS011;26529;51.530;11.754;2022-08-19T10:18:21;5.53;;;5.03;;
40074;SDS011;26529;51.530;11.754;2022-08-19T10:20:48;5.82;;;4.22;;
40074;SDS011;26529;51.530;11.754;2022-08-19T10:23:16;5.38;;;4.30;;
40074;SDS011;26529;51.530;11.754;2022-08-19T10:25:42;5.03;;;4.53;;
40074;SDS011;26529;51.530;11.754;2022-08-19T10:28:08;5.10;;;4.60;;
40074;SDS011;26529;51.530;11.754;2022-08-19T10:30:37;6.75;;;5.25;;
40074;SDS011;26529;51.530;11.754;2022-08-19T10:33:04;5.97;;;5.25;;
40074;SDS011;26529;51.530;11.754;2022-08-19T10:35:30;5.28;;;4.82;;
40074;SDS011;26529;51.530;11.754;2022-08-19T10:37:56;8.77;;;5.82;;
40074;SDS011;26529;51.530;11.754;2022-08-19T10:40:26;6.18;;;5.57;;
40074;SDS011;26529;51.530;11.754;2022-08-19T10:42:53;6.15;;;5.47;;
40074;SDS011;26529;51.530;11.754;2022-08-19T10:45:21;6.43;;;5.82;;
40074;SDS011;26529;51.530;11.754;2022-08-19T10:47:50;6.38;;;5.88;;
40074;SDS011;26529;51.530;11.754;2022-08-19T10:50:16;6.50;;;5.72;;
40074;SDS011;26529;51.530;11.754;2022-08-19T10:53:03;7.57;;;6.20;;
40074;SDS011;26529;51.530;11.754;2022-08-19T10:55:30;7.40;;;6.55;;
40074;SDS011;26529;51.530;11.754;2022-08-19T10:58:16;6.70;;;6.07;;
40074;SDS011;26529;51.530;11.754;2022-08-19T11:00:43;6.72;;;6.13;;
40074;SDS011;26529;51.530;11.754;2022-08-19T11:03:15;6.78;;;6.18;;
40074;SDS011;26529;51.530;11.754;2022-08-19T11:05:41;7.05;;;6.35;;
40074;SDS011;26529;51.530;11.754;2022-08-19T11:08:07;6.60;;;6.00;;
40074;SDS011;26529;51.530;11.754;2022-08-19T11:10:36;6.75;;;6.15;;
40074;SDS011;26529;51.530;11.754;2022-08-19T11:13:06;7.50;;;6.18;;
40074;SDS011;26529;51.530;11.754;2022-08-19T11:15:31;7.10;;;6.40;;
40074;SDS011;26529;51.530;11.754;2022-08-19T11:17:57;6.47;;;5.97;;
40074;SDS011;26529;51.530;11.754;2022-08-19T11:20:22;6.75;;;6.05;;
40074;SDS011;26529;51.530;11.754;2022-08-19T11:22:48;6.88;;;6.30;;
40074;SDS011;26529;51.530;11.754;2022-08-19T11:25:17;6.57;;;5.97;;
40074;SDS011;26529;51.530;11.754;2022-08-19T11:27:43;6.38;;;5.88;;
40074;SDS011;26529;51.530;11.754;2022-08-19T11:30:10;6.97;;;6.38;;
40074;SDS011;26529;51.530;11.754;2022-08-19T11:32:37;6.60;;;6.00;;
40074;SDS011;26529;51.530;11.754;2022-08-19T11:35:04;6.85;;;6.25;;
40074;SDS011;26529;51.530;11.754;2022-08-19T11:37:30;6.50;;;5.90;;
40074;SDS011;26529;51.530;11.754;2022-08-19T11:39:55;6.55;;;6.05;;
40074;SDS011;26529;51.530;11.754;2022-08-19T11:42:20;6.15;;;5.65;;
40074;SDS011;26529;51.530;11.754;2022-08-19T11:45:05;6.85;;;6.25;;
40074;SDS011;26529;51.530;11.754;2022-08-19T11:47:31;7.53;;;6.22;;
40074;SDS011;26529;51.530;11.754;2022-08-19T11:49:56;7.43;;;5.70;;
40074;SDS011;26529;51.530;11.754;2022-08-19T11:52:22;7.75;;;6.38;;
40074;SDS011;26529;51.530;11.754;2022-08-19T11:54:47;7.20;;;6.13;;
40074;SDS011;26529;51.530;11.754;2022-08-19T11:57:13;6.22;;;5.47;;
40074;SDS011;26529;51.530;11.754;2022-08-19T11:59:42;6.68;;;6.07;;
40074;SDS011;26529;51.530;11.754;2022-08-19T12:02:12;6.50;;;5.88;;
40074;SDS011;26529;51.530;11.754;2022-08-19T12:04:39;6.40;;;5.80;;
40074;SDS011;26529;51.530;11.754;2022-08-19T12:07:04;7.15;;;6.45;;
40074;SDS011;26529;51.530;11.754;2022-08-19T12:09:30;5.78;;;5.28;;
40074;SDS011;26529;51.530;11.754;2022-08-19T12:11:56;5.90;;;5.40;;
40074;SDS011;26529;51.530;11.754;2022-08-19T12:14:22;6.43;;;5.90;;
40074;SDS011;26529;51.530;11.754;2022-08-19T12:16:48;6.15;;;5.65;;
40074;SDS011;26529;51.530;11.754;2022-08-19T12:19:13;6.53;;;5.82;;
40074;SDS011;26529;51.530;11.754;2022-08-19T12:21:39;6.63;;;6.03;;
40074;SDS011;26529;51.530;11.754;2022-08-19T12:24:05;6.30;;;5.80;;
40074;SDS011;26529;51.530;11.754;2022-08-19T12:26:31;6.38;;;5.78;;
40074;SDS011;26529;51.530;11.754;2022-08-19T12:28:56;6.63;;;5.85;;
40074;SDS011;26529;51.530;11.754;2022-08-19T12:31:24;7.47;;;6.68;;
40074;SDS011;26529;51.530;11.754;2022-08-19T12:33:51;7.10;;;6.40;;
40074;SDS011;26529;51.530;11.754;2022-08-19T12:36:17;7.93;;;7.13;;
40074;SDS011;26529;51.530;11.754;2022-08-19T12:38:43;7.72;;;6.88;;
40074;SDS011;26529;51.530;11.754;2022-08-19T12:41:12;7.47;;;6.82;;
40074;SDS011;26529;51.530;11.754;2022-08-19T12:43:40;8.32;;;7.30;;
40074;SDS011;26529;51.530;11.754;2022-08-19T12:46:07;8.02;;;7.25;;
40074;SDS011;26529;51.530;11.754;2022-08-19T12:48:33;7.80;;;7.10;;
40074;SDS011;26529;51.530;11.754;2022-08-19T12:50:59;10.00;;;6.97;;
40074;SDS011;26529;51.530;11.754;2022-08-19T12:53:25;8.05;;;7.25;;
40074;SDS011;26529;51.530;11.754;2022-08-19T12:55:57;8.07;;;7.00;;
40074;SDS011;26529;51.530;11.754;2022-08-19T12:58:24;8.23;;;7.43;;
40074;SDS011;26529;51.530;11.754;2022-08-19T13:00:51;9.73;;;7.22;;
40074;SDS011;26529;51.530;11.754;2022-08-19T13:03:16;7.93;;;7.03;;
40074;SDS011;26529;51.530;11.754;2022-08-19T13:05:42;10.25;;;8.27;;
40074;SDS011;26529;51.530;11.754;2022-08-19T13:08:08;8.63;;;7.80;;
40074;SDS011;26529;51.530;11.754;2022-08-19T13:10:34;8.88;;;7.97;;
40074;SDS011;26529;51.530;11.754;2022-08-19T13:13:01;8.20;;;7.50;;
40074;SDS011;26529;51.530;11.754;2022-08-19T13:15:32;8.10;;;7.30;;
40074;SDS011;26529;51.530;11.754;2022-08-19T13:18:00;8.15;;;7.45;;
40074;SDS011;26529;51.530;11.754;2022-08-19T13:20:26;8.15;;;7.35;;
40074;SDS011;26529;51.530;11.754;2022-08-19T13:22:51;8.98;;;7.60;;
40074;SDS011;26529;51.530;11.754;2022-08-19T13:25:17;8.05;;;7.35;;
40074;SDS011;26529;51.530;11.754;2022-08-19T13:27:45;8.10;;;7.35;;
40074;SDS011;26529;51.530;11.754;2022-08-19T13:30:12;7.97;;;7.18;;
40074;SDS011;26529;51.530;11.754;2022-08-19T13:32:57;9.02;;;7.70;;
40074;SDS011;26529;51.530;11.754;2022-08-19T13:35:36;9.68;;;7.93;;
40074;SDS011;26529;51.530;11.754;2022-08-19T13:38:08;8.10;;;7.30;;
40074;SDS011;26529;51.530;11.754;2022-08-19T13:40:35;10.27;;;7.80;;
40074;SDS011;26529;51.530;11.754;2022-08-19T13:43:02;7.60;;;6.82;;
40074;SDS011;26529;51.530;11.754;2022-08-19T13:45:29;7.18;;;6.47;;
40074;SDS011;26529;51.530;11.754;2022-08-19T13:47:56;7.00;;;6.38;;
40074;SDS011;26529;51.530;11.754;2022-08-19T13:50:25;6.70;;;6.10;;
40074;SDS011;26529;51.530;11.754;2022-08-19T13:52:53;6.85;;;6.18;;
40074;SDS011;26529;51.530;11.754;2022-08-19T13:55:20;6.38;;;5.78;;
40074;SDS011;26529;51.530;11.754;2022-08-19T13:57:50;6.03;;;5.50;;
40074;SDS011;26529;51.530;11.754;2022-08-19T14:00:18;5.97;;;5.32;;
40074;SDS011;26529;51.530;11.754;2022-08-19T14:02:45;8.60;;;6.50;;
40074;SDS011;26529;51.530;11.754;2022-08-19T14:05:13;5.85;;;5.20;;
40074;SDS011;26529;51.530;11.754;2022-08-19T14:07:40;6.50;;;5.78;;
40074;SDS011;26529;51.530;11.754;2022-08-19T14:10:07;8.55;;;5.63;;
40074;SDS011;26529;51.530;11.754;2022-08-19T14:12:34;5.88;;;5.38;;
40074;SDS011;26529;51.530;11.754;2022-08-19T14:15:00;5.50;;;5.00;;
40074;SDS011;26529;51.530;11.754;2022-08-19T14:17:28;6.10;;;5.13;;
40074;SDS011;26529;51.530;11.754;2022-08-19T14:19:57;7.75;;;5.65;;
40074;SDS011;26529;51.530;11.754;2022-08-19T14:22:25;6.45;;;5.13;;
40074;SDS011;26529;51.530;11.754;2022-08-19T14:24:50;5.50;;;5.03;;
40074;SDS011;26529;51.530;11.754;2022-08-19T14:27:16;6.38;;;5.25;;
40074;SDS011;26529;51.530;11.754;2022-08-19T14:29:41;8.43;;;5.07;;
40074;SDS011;26529;51.530;11.754;2022-08-19T14:32:07;6.68;;;4.90;;
40074;SDS011;26529;51.530;11.754;2022-08-19T14:34:33;5.43;;;4.88;;
40074;SDS011;26529;51.530;11.754;2022-08-19T14:36:58;7.53;;;4.85;;
40074;SDS011;26529;51.530;11.754;2022-08-19T14:39:24;6.05;;;4.78;;
40074;SDS011;26529;51.530;11.754;2022-08-19T14:41:50;6.03;;;5.03;;
40074;SDS011;26529;51.530;11.754;2022-08-19T14:44:15;7.38;;;4.82;;